sensor_id;sensor_type;location;lat;lon;timestamp;P1;P4;P2;P0;N10;N4;N25;N1;N05;TS
62702;SPS30;66022;50.448;18.122;2023-02-18T00:03:36;5.79;;5.79;;;;;;;
62702;SPS30;66022;50.448;18.122;2023-02-18T00:07:50;7.80;;7.08;;;;;;;
62702;SPS30;66022;50.448;18.122;2023-02-18T00:12:10;7.80;;7.08;;;;;;;
62702;SPS30;66022;50.448;18.122;2023-02-18T00:16:18;12.40;;12.40;;;;;;;
62702;SPS30;66022;50.448;18.122;2023-02-18T00:20:32;12.40;;12.40;;;;;;;
62702;SPS30;66022;50.448;18.122;2023-02-18T00:24:46;3.64;;3.64;;;;;;;
62702;SPS30;66022;50.448;18.122;2023-02-18T00:29:01;3.64;;3.64;;;;;;;
62702;SPS30;66022;50.448;18.122;2023-02-18T00:33:14;3.64;;3.64;;;;;;;
62702;SPS30;66022;50.448;18.122;2023-02-18T00:37:28;5.40;;4.78;;;;;;;
62702;SPS30;66022;50.448;18.122;2023-02-18T00:41:43;5.40;;4.78;;;;;;;
62702;SPS30;66022;50.448;18.122;2023-02-18T00:45:56;4.63;;4.24;;;;;;;
62702;SPS30;66022;50.448;18.122;2023-02-18T00:50:10;4.63;;4.24;;;;;;;
62702;SPS30;66022;50.448;18.122;2023-02-18T00:54:24;4.63;;4.24;;;;;;;
62702;SPS30;66022;50.448;18.122;2023-02-18T00:58:38;3.60;;3.27;;;;;;;
62702;SPS30;66022;50.448;18.122;2023-02-18T01:02:52;3.60;;3.27;;;;;;;
62702;SPS30;66022;50.448;18.122;2023-02-18T01:07:06;3.51;;2.93;;;;;;;
62702;SPS30;66022;50.448;18.122;2023-02-18T01:11:20;3.51;;2.93;;;;;;;
62702;SPS30;66022;50.448;18.122;2023-02-18T01:19:49;1.66;;1.66;;;;;;;
62702;SPS30;66022;50.448;18.122;2023-02-18T01:24:03;1.66;;1.66;;;;;;;
62702;SPS30;66022;50.448;18.122;2023-02-18T01:28:16;2.49;;2.39;;;;;;;
62702;SPS30;66022;50.448;18.122;2023-02-18T01:32:31;2.49;;2.39;;;;;;;
62702;SPS30;66022;50.448;18.122;2023-02-18T01:36:45;2.08;;2.08;;;;;;;
62702;SPS30;66022;50.448;18.122;2023-02-18T01:40:59;2.08;;2.08;;;;;;;
62702;SPS30;66022;50.448;18.122;2023-02-18T01:49:27;2.82;;2.49;;;;;;;
62702;SPS30;66022;50.448;18.122;2023-02-18T01:53:46;2.82;;2.49;;;;;;;
62702;SPS30;66022;50.448;18.122;2023-02-18T01:57:55;2.87;;2.62;;;;;;;
62702;SPS30;66022;50.448;18.122;2023-02-18T02:02:11;2.87;;2.62;;;;;;;
62702;SPS30;66022;50.448;18.122;2023-02-18T02:06:23;4.75;;3.90;;;;;;;
62702;SPS30;66022;50.448;18.122;2023-02-18T02:10:42;4.75;;3.90;;;;;;;
62702;SPS30;66022;50.448;18.122;2023-02-18T02:23:26;2.63;;2.63;;;;;;;
62702;SPS30;66022;50.448;18.122;2023-02-18T02:40:19;3.03;;2.37;;;;;;;
62702;SPS30;66022;50.448;18.122;2023-02-18T02:52:58;1.29;;1.29;;;;;;;
62702;SPS30;66022;50.448;18.122;2023-02-18T03:01:34;1.25;;1.25;;;;;;;
62702;SPS30;66022;50.448;18.122;2023-02-18T03:14:09;2.52;;2.07;;;;;;;
62702;SPS30;66022;50.448;18.122;2023-02-18T03:18:39;1.13;;1.13;;;;;;;
62702;SPS30;66022;50.448;18.122;2023-02-18T03:26:55;0.99;;0.99;;;;;;;
62702;SPS30;66022;50.448;18.122;2023-02-18T03:31:07;0.99;;0.99;;;;;;;
62702;SPS30;66022;50.448;18.122;2023-02-18T03:35:17;1.99;;1.65;;;;;;;
62702;SPS30;66022;50.448;18.122;2023-02-18T03:39:32;1.99;;1.65;;;;;;;
62702;SPS30;66022;50.448;18.122;2023-02-18T03:43:51;1.99;;1.65;;;;;;;
62702;SPS30;66022;50.448;18.122;2023-02-18T03:47:59;0.80;;0.80;;;;;;;
62702;SPS30;66022;50.448;18.122;2023-02-18T03:52:13;0.80;;0.80;;;;;;;
62702;SPS30;66022;50.448;18.122;2023-02-18T04:00:41;1.48;;1.25;;;;;;;
62702;SPS30;66022;50.448;18.122;2023-02-18T04:04:55;1.32;;1.10;;;;;;;
62702;SPS30;66022;50.448;18.122;2023-02-18T04:09:09;1.32;;1.10;;;;;;;
62702;SPS30;66022;50.448;18.122;2023-02-18T04:13:23;1.32;;1.10;;;;;;;
62702;SPS30;66022;50.448;18.122;2023-02-18T04:17:37;1.27;;1.03;;;;;;;
62702;SPS30;66022;50.448;18.122;2023-02-18T04:21:51;1.27;;1.03;;;;;;;
62702;SPS30;66022;50.448;18.122;2023-02-18T04:26:05;2.45;;1.92;;;;;;;
62702;SPS30;66022;50.448;18.122;2023-02-18T04:30:20;2.45;;1.92;;;;;;;
62702;SPS30;66022;50.448;18.122;2023-02-18T04:34:36;2.45;;1.92;;;;;;;
62702;SPS30;66022;50.448;18.122;2023-02-18T04:38:47;1.59;;1.29;;;;;;;
62702;SPS30;66022;50.448;18.122;2023-02-18T04:43:02;1.59;;1.29;;;;;;;
62702;SPS30;66022;50.448;18.122;2023-02-18T04:47:15;0.76;;0.69;;;;;;;
62702;SPS30;66022;50.448;18.122;2023-02-18T04:51:32;0.76;;0.69;;;;;;;
62702;SPS30;66022;50.448;18.122;2023-02-18T04:55:43;0.79;;0.79;;;;;;;
62702;SPS30;66022;50.448;18.122;2023-02-18T04:59:57;0.79;;0.79;;;;;;;
62702;SPS30;66022;50.448;18.122;2023-02-18T05:04:11;0.79;;0.79;;;;;;;
62702;SPS30;66022;50.448;18.122;2023-02-18T05:08:25;0.86;;0.71;;;;;;;
62702;SPS30;66022;50.448;18.122;2023-02-18T05:12:39;0.86;;0.71;;;;;;;
62702;SPS30;66022;50.448;18.122;2023-02-18T05:16:53;1.16;;0.93;;;;;;;
62702;SPS30;66022;50.448;18.122;2023-02-18T05:21:07;1.16;;0.93;;;;;;;
62702;SPS30;66022;50.448;18.122;2023-02-18T05:25:21;0.43;;0.41;;;;;;;
62702;SPS30;66022;50.448;18.122;2023-02-18T05:29:35;0.43;;0.41;;;;;;;
62702;SPS30;66022;50.448;18.122;2023-02-18T05:33:49;0.43;;0.41;;;;;;;
62702;SPS30;66022;50.448;18.122;2023-02-18T05:38:03;1.60;;1.12;;;;;;;
62702;SPS30;66022;50.448;18.122;2023-02-18T05:42:18;1.60;;1.12;;;;;;;
62702;SPS30;66022;50.448;18.122;2023-02-18T05:46:31;0.43;;0.39;;;;;;;
62702;SPS30;66022;50.448;18.122;2023-02-18T05:50:45;0.43;;0.39;;;;;;;
62702;SPS30;66022;50.448;18.122;2023-02-18T05:54:59;0.41;;0.41;;;;;;;
62702;SPS30;66022;50.448;18.122;2023-02-18T05:59:13;0.41;;0.41;;;;;;;
62702;SPS30;66022;50.448;18.122;2023-02-18T06:03:27;0.41;;0.41;;;;;;;
62702;SPS30;66022;50.448;18.122;2023-02-18T06:07:41;0.56;;0.56;;;;;;;
62702;SPS30;66022;50.448;18.122;2023-02-18T06:11:55;0.56;;0.56;;;;;;;
62702;SPS30;66022;50.448;18.122;2023-02-18T06:16:09;2.62;;1.64;;;;;;;
62702;SPS30;66022;50.448;18.122;2023-02-18T06:20:23;2.62;;1.64;;;;;;;
62702;SPS30;66022;50.448;18.122;2023-02-18T06:24:37;2.62;;1.64;;;;;;;
62702;SPS30;66022;50.448;18.122;2023-02-18T06:28:51;1.85;;1.34;;;;;;;
62702;SPS30;66022;50.448;18.122;2023-02-18T06:33:05;1.85;;1.34;;;;;;;
62702;SPS30;66022;50.448;18.122;2023-02-18T06:37:19;3.45;;2.21;;;;;;;
62702;SPS30;66022;50.448;18.122;2023-02-18T06:41:33;3.45;;2.21;;;;;;;
62702;SPS30;66022;50.448;18.122;2023-02-18T06:45:47;1.00;;0.82;;;;;;;
62702;SPS30;66022;50.448;18.122;2023-02-18T06:50:04;1.00;;0.82;;;;;;;
62702;SPS30;66022;50.448;18.122;2023-02-18T06:54:15;1.00;;0.82;;;;;;;
62702;SPS30;66022;50.448;18.122;2023-02-18T06:58:29;1.13;;0.91;;;;;;;
62702;SPS30;66022;50.448;18.122;2023-02-18T07:02:43;1.13;;0.91;;;;;;;
62702;SPS30;66022;50.448;18.122;2023-02-18T07:06:57;0.81;;0.81;;;;;;;
62702;SPS30;66022;50.448;18.122;2023-02-18T07:11:11;0.81;;0.81;;;;;;;
62702;SPS30;66022;50.448;18.122;2023-02-18T07:15:25;3.87;;2.61;;;;;;;
62702;SPS30;66022;50.448;18.122;2023-02-18T07:19:39;3.87;;2.61;;;;;;;
62702;SPS30;66022;50.448;18.122;2023-02-18T07:23:53;3.87;;2.61;;;;;;;
62702;SPS30;66022;50.448;18.122;2023-02-18T07:28:07;2.38;;1.75;;;;;;;
62702;SPS30;66022;50.448;18.122;2023-02-18T07:32:21;2.38;;1.75;;;;;;;
62702;SPS30;66022;50.448;18.122;2023-02-18T07:36:35;2.47;;2.06;;;;;;;
62702;SPS30;66022;50.448;18.122;2023-02-18T07:40:50;2.47;;2.06;;;;;;;
62702;SPS30;66022;50.448;18.122;2023-02-18T07:45:03;12.58;;12.02;;;;;;;
62702;SPS30;66022;50.448;18.122;2023-02-18T07:49:17;12.58;;12.02;;;;;;;
62702;SPS30;66022;50.448;18.122;2023-02-18T07:53:31;12.58;;12.02;;;;;;;
62702;SPS30;66022;50.448;18.122;2023-02-18T07:57:45;2.72;;2.41;;;;;;;
62702;SPS30;66022;50.448;18.122;2023-02-18T08:02:02;2.72;;2.41;;;;;;;
62702;SPS30;66022;50.448;18.122;2023-02-18T08:06:18;1.66;;1.66;;;;;;;
62702;SPS30;66022;50.448;18.122;2023-02-18T08:10:27;1.66;;1.66;;;;;;;
62702;SPS30;66022;50.448;18.122;2023-02-18T08:14:41;1.66;;1.66;;;;;;;
62702;SPS30;66022;50.448;18.122;2023-02-18T08:18:55;4.80;;4.00;;;;;;;
62702;SPS30;66022;50.448;18.122;2023-02-18T08:23:09;4.80;;4.00;;;;;;;
62702;SPS30;66022;50.448;18.122;2023-02-18T08:27:23;5.34;;4.11;;;;;;;
62702;SPS30;66022;50.448;18.122;2023-02-18T08:31:40;5.34;;4.11;;;;;;;
62702;SPS30;66022;50.448;18.122;2023-02-18T08:35:52;2.79;;2.46;;;;;;;
62702;SPS30;66022;50.448;18.122;2023-02-18T08:40:05;2.79;;2.46;;;;;;;
62702;SPS30;66022;50.448;18.122;2023-02-18T08:44:23;2.79;;2.46;;;;;;;
62702;SPS30;66022;50.448;18.122;2023-02-18T08:48:33;2.93;;2.10;;;;;;;
62702;SPS30;66022;50.448;18.122;2023-02-18T08:52:47;2.93;;2.10;;;;;;;
62702;SPS30;66022;50.448;18.122;2023-02-18T08:57:01;2.82;;2.82;;;;;;;
62702;SPS30;66022;50.448;18.122;2023-02-18T09:01:18;2.82;;2.82;;;;;;;
62702;SPS30;66022;50.448;18.122;2023-02-18T09:05:29;3.74;;2.68;;;;;;;
62702;SPS30;66022;50.448;18.122;2023-02-18T09:09:43;3.74;;2.68;;;;;;;
62702;SPS30;66022;50.448;18.122;2023-02-18T09:13:57;3.74;;2.68;;;;;;;
62702;SPS30;66022;50.448;18.122;2023-02-18T09:18:14;2.78;;2.18;;;;;;;
62702;SPS30;66022;50.448;18.122;2023-02-18T09:22:25;2.78;;2.18;;;;;;;
62702;SPS30;66022;50.448;18.122;2023-02-18T09:26:42;3.97;;2.82;;;;;;;
62702;SPS30;66022;50.448;18.122;2023-02-18T09:30:53;3.97;;2.82;;;;;;;
62702;SPS30;66022;50.448;18.122;2023-02-18T09:35:07;2.74;;2.09;;;;;;;
62702;SPS30;66022;50.448;18.122;2023-02-18T09:39:21;2.74;;2.09;;;;;;;
62702;SPS30;66022;50.448;18.122;2023-02-18T09:43:37;2.74;;2.09;;;;;;;
62702;SPS30;66022;50.448;18.122;2023-02-18T09:47:49;1.67;;1.48;;;;;;;
62702;SPS30;66022;50.448;18.122;2023-02-18T09:52:05;1.67;;1.48;;;;;;;
62702;SPS30;66022;50.448;18.122;2023-02-18T09:56:35;1.99;;1.91;;;;;;;
62702;SPS30;66022;50.448;18.122;2023-02-18T10:00:32;1.99;;1.91;;;;;;;
62702;SPS30;66022;50.448;18.122;2023-02-18T10:04:47;2.75;;2.39;;;;;;;
62702;SPS30;66022;50.448;18.122;2023-02-18T10:09:01;2.75;;2.39;;;;;;;
62702;SPS30;66022;50.448;18.122;2023-02-18T10:13:15;2.75;;2.39;;;;;;;
62702;SPS30;66022;50.448;18.122;2023-02-18T10:17:29;3.64;;2.60;;;;;;;
62702;SPS30;66022;50.448;18.122;2023-02-18T10:21:41;3.64;;2.60;;;;;;;
62702;SPS30;66022;50.448;18.122;2023-02-18T10:25:55;1.43;;1.43;;;;;;;
62702;SPS30;66022;50.448;18.122;2023-02-18T10:38:41;1.56;;1.38;;;;;;;
62702;SPS30;66022;50.448;18.122;2023-02-18T10:51:23;1.49;;1.49;;;;;;;
62702;SPS30;66022;50.448;18.122;2023-02-18T10:55:34;3.14;;2.40;;;;;;;
62702;SPS30;66022;50.448;18.122;2023-02-18T11:08:17;3.20;;2.52;;;;;;;
62702;SPS30;66022;50.448;18.122;2023-02-18T11:12:33;3.20;;2.52;;;;;;;
62702;SPS30;66022;50.448;18.122;2023-02-18T11:16:44;3.46;;2.85;;;;;;;
62702;SPS30;66022;50.448;18.122;2023-02-18T11:20:58;3.46;;2.85;;;;;;;
62702;SPS30;66022;50.448;18.122;2023-02-18T11:29:25;4.59;;4.11;;;;;;;
62702;SPS30;66022;50.448;18.122;2023-02-18T11:33:43;4.59;;4.11;;;;;;;
62702;SPS30;66022;50.448;18.122;2023-02-18T11:37:55;5.88;;4.86;;;;;;;
62702;SPS30;66022;50.448;18.122;2023-02-18T11:42:10;5.88;;4.86;;;;;;;
62702;SPS30;66022;50.448;18.122;2023-02-18T11:46:22;2.93;;2.81;;;;;;;
62702;SPS30;66022;50.448;18.122;2023-02-18T11:50:35;2.93;;2.81;;;;;;;
62702;SPS30;66022;50.448;18.122;2023-02-18T11:59:03;6.30;;4.85;;;;;;;
62702;SPS30;66022;50.448;18.122;2023-02-18T12:03:26;6.30;;4.85;;;;;;;
62702;SPS30;66022;50.448;18.122;2023-02-18T12:11:50;8.36;;6.78;;;;;;;
62702;SPS30;66022;50.448;18.122;2023-02-18T12:24:33;20.19;;16.95;;;;;;;
62702;SPS30;66022;50.448;18.122;2023-02-18T12:45:44;12.07;;9.62;;;;;;;
62702;SPS30;66022;50.448;18.122;2023-02-18T12:49:58;12.07;;9.62;;;;;;;
62702;SPS30;66022;50.448;18.122;2023-02-18T13:15:17;14.62;;13.75;;;;;;;
62702;SPS30;66022;50.448;18.122;2023-02-18T13:19:35;14.62;;13.75;;;;;;;
62702;SPS30;66022;50.448;18.122;2023-02-18T13:32:15;10.22;;9.26;;;;;;;
62702;SPS30;66022;50.448;18.122;2023-02-18T13:36:30;11.21;;10.28;;;;;;;
62702;SPS30;66022;50.448;18.122;2023-02-18T13:40:40;11.21;;10.28;;;;;;;
62702;SPS30;66022;50.448;18.122;2023-02-18T13:49:10;16.90;;14.31;;;;;;;
62702;SPS30;66022;50.448;18.122;2023-02-18T13:53:22;16.90;;14.31;;;;;;;
62702;SPS30;66022;50.448;18.122;2023-02-18T13:57:36;19.14;;17.90;;;;;;;
62702;SPS30;66022;50.448;18.122;2023-02-18T14:01:50;19.14;;17.90;;;;;;;
62702;SPS30;66022;50.448;18.122;2023-02-18T14:14:32;23.92;;20.57;;;;;;;
62702;SPS30;66022;50.448;18.122;2023-02-18T14:23:00;27.06;;24.25;;;;;;;
62702;SPS30;66022;50.448;18.122;2023-02-18T14:27:14;23.60;;22.40;;;;;;;
62702;SPS30;66022;50.448;18.122;2023-02-18T14:44:13;25.43;;23.91;;;;;;;
62702;SPS30;66022;50.448;18.122;2023-02-18T14:52:56;30.88;;24.82;;;;;;;
62702;SPS30;66022;50.448;18.122;2023-02-18T14:56:55;20.94;;18.95;;;;;;;
62702;SPS30;66022;50.448;18.122;2023-02-18T15:01:06;20.94;;18.95;;;;;;;
62702;SPS30;66022;50.448;18.122;2023-02-18T15:05:23;25.71;;22.17;;;;;;;
62702;SPS30;66022;50.448;18.122;2023-02-18T15:09:34;25.71;;22.17;;;;;;;
62702;SPS30;66022;50.448;18.122;2023-02-18T15:13:48;25.71;;22.17;;;;;;;
62702;SPS30;66022;50.448;18.122;2023-02-18T15:18:02;23.27;;22.30;;;;;;;
62702;SPS30;66022;50.448;18.122;2023-02-18T15:22:19;23.27;;22.30;;;;;;;
62702;SPS30;66022;50.448;18.122;2023-02-18T15:26:30;27.68;;26.31;;;;;;;
62702;SPS30;66022;50.448;18.122;2023-02-18T15:30:44;27.68;;26.31;;;;;;;
62702;SPS30;66022;50.448;18.122;2023-02-18T15:34:58;44.17;;41.95;;;;;;;
62702;SPS30;66022;50.448;18.122;2023-02-18T15:39:12;44.17;;41.95;;;;;;;
62702;SPS30;66022;50.448;18.122;2023-02-18T15:43:26;44.17;;41.95;;;;;;;
62702;SPS30;66022;50.448;18.122;2023-02-18T15:51:55;38.27;;36.48;;;;;;;
62702;SPS30;66022;50.448;18.122;2023-02-18T15:56:09;37.19;;35.69;;;;;;;
62702;SPS30;66022;50.448;18.122;2023-02-18T16:00:25;37.19;;35.69;;;;;;;
62702;SPS30;66022;50.448;18.122;2023-02-18T16:04:37;37.19;;35.69;;;;;;;
62702;SPS30;66022;50.448;18.122;2023-02-18T16:13:04;44.95;;43.76;;;;;;;
62702;SPS30;66022;50.448;18.122;2023-02-18T16:17:19;96.62;;96.09;;;;;;;
62702;SPS30;66022;50.448;18.122;2023-02-18T16:21:43;96.62;;96.09;;;;;;;
62702;SPS30;66022;50.448;18.122;2023-02-18T16:25:48;595.63;;453.96;;;;;;;
62702;SPS30;66022;50.448;18.122;2023-02-18T16:30:22;595.63;;453.96;;;;;;;
62702;SPS30;66022;50.448;18.122;2023-02-18T16:34:14;595.63;;453.96;;;;;;;
62702;SPS30;66022;50.448;18.122;2023-02-18T16:38:28;1163.30;;754.62;;;;;;;
62702;SPS30;66022;50.448;18.122;2023-02-18T16:42:42;1163.30;;754.62;;;;;;;
62702;SPS30;66022;50.448;18.122;2023-02-18T16:46:56;235.49;;185.75;;;;;;;
62702;SPS30;66022;50.448;18.122;2023-02-18T16:51:12;235.49;;185.75;;;;;;;
62702;SPS30;66022;50.448;18.122;2023-02-18T16:55:25;783.00;;553.27;;;;;;;
62702;SPS30;66022;50.448;18.122;2023-02-18T16:59:38;783.00;;553.27;;;;;;;
62702;SPS30;66022;50.448;18.122;2023-02-18T17:03:52;783.00;;553.27;;;;;;;
62702;SPS30;66022;50.448;18.122;2023-02-18T17:12:20;406.76;;277.51;;;;;;;
62702;SPS30;66022;50.448;18.122;2023-02-18T17:16:34;31.62;;25.34;;;;;;;
62702;SPS30;66022;50.448;18.122;2023-02-18T17:20:48;31.62;;25.34;;;;;;;
62702;SPS30;66022;50.448;18.122;2023-02-18T17:25:08;16.28;;14.24;;;;;;;
62702;SPS30;66022;50.448;18.122;2023-02-18T17:29:16;16.28;;14.24;;;;;;;
62702;SPS30;66022;50.448;18.122;2023-02-18T17:33:31;16.28;;14.24;;;;;;;
62702;SPS30;66022;50.448;18.122;2023-02-18T17:37:44;11.56;;10.55;;;;;;;
62702;SPS30;66022;50.448;18.122;2023-02-18T17:41:58;11.56;;10.55;;;;;;;
62702;SPS30;66022;50.448;18.122;2023-02-18T17:46:12;332.72;;245.82;;;;;;;
62702;SPS30;66022;50.448;18.122;2023-02-18T17:50:26;332.72;;245.82;;;;;;;
62702;SPS30;66022;50.448;18.122;2023-02-18T17:54:40;332.72;;245.82;;;;;;;
62702;SPS30;66022;50.448;18.122;2023-02-18T17:58:54;8.02;;8.02;;;;;;;
62702;SPS30;66022;50.448;18.122;2023-02-18T18:03:09;8.02;;8.02;;;;;;;
62702;SPS30;66022;50.448;18.122;2023-02-18T18:07:22;19.29;;19.29;;;;;;;
62702;SPS30;66022;50.448;18.122;2023-02-18T18:11:36;19.29;;19.29;;;;;;;
62702;SPS30;66022;50.448;18.122;2023-02-18T18:15:50;6.05;;6.05;;;;;;;
62702;SPS30;66022;50.448;18.122;2023-02-18T18:20:04;6.05;;6.05;;;;;;;
62702;SPS30;66022;50.448;18.122;2023-02-18T18:24:20;6.05;;6.05;;;;;;;
62702;SPS30;66022;50.448;18.122;2023-02-18T18:32:51;4.53;;4.53;;;;;;;
62702;SPS30;66022;50.448;18.122;2023-02-18T18:37:00;7.51;;6.86;;;;;;;
62702;SPS30;66022;50.448;18.122;2023-02-18T18:41:18;7.51;;6.86;;;;;;;
62702;SPS30;66022;50.448;18.122;2023-02-18T18:45:29;4.32;;4.32;;;;;;;
62702;SPS30;66022;50.448;18.122;2023-02-18T18:49:42;4.32;;4.32;;;;;;;
62702;SPS30;66022;50.448;18.122;2023-02-18T18:53:56;4.32;;4.32;;;;;;;
62702;SPS30;66022;50.448;18.122;2023-02-18T18:58:11;5.79;;5.42;;;;;;;
62702;SPS30;66022;50.448;18.122;2023-02-18T19:02:24;5.79;;5.42;;;;;;;
62702;SPS30;66022;50.448;18.122;2023-02-18T19:10:53;4.45;;4.39;;;;;;;
62702;SPS30;66022;50.448;18.122;2023-02-18T19:15:06;4.39;;4.39;;;;;;;
62702;SPS30;66022;50.448;18.122;2023-02-18T19:19:20;4.39;;4.39;;;;;;;
62702;SPS30;66022;50.448;18.122;2023-02-18T19:23:34;4.39;;4.39;;;;;;;
62702;SPS30;66022;50.448;18.122;2023-02-18T19:27:49;4.97;;4.97;;;;;;;
62702;SPS30;66022;50.448;18.122;2023-02-18T19:32:02;4.97;;4.97;;;;;;;
62702;SPS30;66022;50.448;18.122;2023-02-18T19:36:16;4.33;;4.33;;;;;;;
62702;SPS30;66022;50.448;18.122;2023-02-18T19:40:30;4.33;;4.33;;;;;;;
62702;SPS30;66022;50.448;18.122;2023-02-18T19:44:44;4.33;;4.33;;;;;;;
62702;SPS30;66022;50.448;18.122;2023-02-18T19:48:58;3.41;;3.41;;;;;;;
62702;SPS30;66022;50.448;18.122;2023-02-18T19:53:12;3.41;;3.41;;;;;;;
62702;SPS30;66022;50.448;18.122;2023-02-18T19:57:26;3.14;;3.14;;;;;;;
62702;SPS30;66022;50.448;18.122;2023-02-18T20:01:40;3.14;;3.14;;;;;;;
62702;SPS30;66022;50.448;18.122;2023-02-18T20:05:54;3.17;;2.91;;;;;;;
62702;SPS30;66022;50.448;18.122;2023-02-18T20:10:12;3.17;;2.91;;;;;;;
62702;SPS30;66022;50.448;18.122;2023-02-18T20:14:22;3.17;;2.91;;;;;;;
62702;SPS30;66022;50.448;18.122;2023-02-18T20:18:36;3.75;;3.53;;;;;;;
62702;SPS30;66022;50.448;18.122;2023-02-18T20:22:50;3.75;;3.53;;;;;;;
62702;SPS30;66022;50.448;18.122;2023-02-18T20:27:04;3.92;;3.45;;;;;;;
62702;SPS30;66022;50.448;18.122;2023-02-18T20:31:18;3.92;;3.45;;;;;;;
62702;SPS30;66022;50.448;18.122;2023-02-18T20:35:32;4.02;;3.95;;;;;;;
62702;SPS30;66022;50.448;18.122;2023-02-18T20:39:46;4.02;;3.95;;;;;;;
62702;SPS30;66022;50.448;18.122;2023-02-18T20:44:03;4.02;;3.95;;;;;;;
62702;SPS30;66022;50.448;18.122;2023-02-18T20:48:14;4.00;;4.00;;;;;;;
62702;SPS30;66022;50.448;18.122;2023-02-18T20:52:28;4.00;;4.00;;;;;;;
62702;SPS30;66022;50.448;18.122;2023-02-18T20:56:42;3.93;;3.93;;;;;;;
62702;SPS30;66022;50.448;18.122;2023-02-18T21:00:57;3.93;;3.93;;;;;;;
62702;SPS30;66022;50.448;18.122;2023-02-18T21:05:10;7.23;;7.10;;;;;;;
62702;SPS30;66022;50.448;18.122;2023-02-18T21:09:24;7.23;;7.10;;;;;;;
62702;SPS30;66022;50.448;18.122;2023-02-18T21:13:38;7.23;;7.10;;;;;;;
62702;SPS30;66022;50.448;18.122;2023-02-18T21:17:52;7.97;;6.77;;;;;;;
62702;SPS30;66022;50.448;18.122;2023-02-18T21:22:06;7.97;;6.77;;;;;;;
62702;SPS30;66022;50.448;18.122;2023-02-18T21:26:21;11.90;;8.92;;;;;;;
62702;SPS30;66022;50.448;18.122;2023-02-18T21:30:37;11.90;;8.92;;;;;;;
62702;SPS30;66022;50.448;18.122;2023-02-18T21:34:48;11.90;;8.92;;;;;;;
62702;SPS30;66022;50.448;18.122;2023-02-18T21:39:03;11.28;;8.50;;;;;;;
62702;SPS30;66022;50.448;18.122;2023-02-18T21:43:16;11.28;;8.50;;;;;;;
62702;SPS30;66022;50.448;18.122;2023-02-18T21:47:30;8.16;;6.92;;;;;;;
62702;SPS30;66022;50.448;18.122;2023-02-18T21:51:44;8.16;;6.92;;;;;;;
62702;SPS30;66022;50.448;18.122;2023-02-18T21:56:06;3.87;;3.61;;;;;;;
62702;SPS30;66022;50.448;18.122;2023-02-18T22:00:16;3.87;;3.61;;;;;;;
62702;SPS30;66022;50.448;18.122;2023-02-18T22:04:29;3.87;;3.61;;;;;;;
62702;SPS30;66022;50.448;18.122;2023-02-18T22:08:40;3.29;;3.15;;;;;;;
62702;SPS30;66022;50.448;18.122;2023-02-18T22:12:54;3.29;;3.15;;;;;;;
62702;SPS30;66022;50.448;18.122;2023-02-18T22:17:08;5.23;;4.79;;;;;;;
62702;SPS30;66022;50.448;18.122;2023-02-18T22:21:22;5.23;;4.79;;;;;;;
62702;SPS30;66022;50.448;18.122;2023-02-18T22:25:36;5.98;;5.62;;;;;;;
62702;SPS30;66022;50.448;18.122;2023-02-18T22:29:50;5.98;;5.62;;;;;;;
62702;SPS30;66022;50.448;18.122;2023-02-18T22:34:04;5.98;;5.62;;;;;;;
62702;SPS30;66022;50.448;18.122;2023-02-18T22:38:18;6.22;;5.48;;;;;;;
62702;SPS30;66022;50.448;18.122;2023-02-18T22:42:32;6.22;;5.48;;;;;;;
62702;SPS30;66022;50.448;18.122;2023-02-18T22:46:46;6.73;;5.45;;;;;;;
62702;SPS30;66022;50.448;18.122;2023-02-18T22:51:04;6.73;;5.45;;;;;;;
62702;SPS30;66022;50.448;18.122;2023-02-18T22:55:14;4.04;;3.67;;;;;;;
62702;SPS30;66022;50.448;18.122;2023-02-18T22:59:28;4.04;;3.67;;;;;;;
62702;SPS30;66022;50.448;18.122;2023-02-18T23:03:42;4.04;;3.67;;;;;;;
62702;SPS30;66022;50.448;18.122;2023-02-18T23:07:56;3.53;;3.35;;;;;;;
62702;SPS30;66022;50.448;18.122;2023-02-18T23:12:10;3.53;;3.35;;;;;;;
62702;SPS30;66022;50.448;18.122;2023-02-18T23:16:24;3.65;;3.49;;;;;;;
62702;SPS30;66022;50.448;18.122;2023-02-18T23:20:38;3.65;;3.49;;;;;;;
62702;SPS30;66022;50.448;18.122;2023-02-18T23:24:52;3.65;;3.49;;;;;;;
62702;SPS30;66022;50.448;18.122;2023-02-18T23:29:06;4.66;;4.22;;;;;;;
62702;SPS30;66022;50.448;18.122;2023-02-18T23:33:23;4.66;;4.22;;;;;;;
62702;SPS30;66022;50.448;18.122;2023-02-18T23:37:34;3.87;;3.72;;;;;;;
62702;SPS30;66022;50.448;18.122;2023-02-18T23:41:48;3.87;;3.72;;;;;;;
62702;SPS30;66022;50.448;18.122;2023-02-18T23:46:02;2.75;;2.69;;;;;;;
62702;SPS30;66022;50.448;18.122;2023-02-18T23:50:16;2.75;;2.69;;;;;;;
62702;SPS30;66022;50.448;18.122;2023-02-18T23:54:30;2.75;;2.69;;;;;;;
62702;SPS30;66022;50.448;18.122;2023-02-18T23:58:48;2.94;;2.71;;;;;;;
